Time;durP1;ratioP1;P1;durP2;ratioP2;P2;SDS_P1;SDS_P2;PMS_P1;PMS_P2;Temp;Humidity;BMP_temperature;BMP_pressure;BME280_temperature;BME280_humidity;BME280_pressure;Samples;Min_cycle;Max_cycle;Signal;HPM_P1;HPM_P2
2023/01/23 00:01:07;;;;;;;;;;;;;;;25.91;50.26;97548.41;619631;229;66921;-75
2023/01/23 00:03:35;;;;;;;;;;;;;;;25.91;51.12;97559.18;619610;227;64498;-75
2023/01/23 00:06:04;;;;;;;;;;;;;;;25.91;50.98;97563.77;619635;229;63043;-75
2023/01/23 00:08:32;;;;;;;;;;;;;;;25.91;50.96;97569.16;619669;227;64804;-75
2023/01/23 00:11:00;;;;;;;;;;;;;;;25.89;51.74;97564.08;619649;229;64678;-71
2023/01/23 00:13:27;;;;;;;;;;;;;;;25.89;50.98;97561.38;619617;229;62676;-71
2023/01/23 00:15:54;;;;;;;;;;;;;;;25.88;50.92;97558.97;619617;229;64804;-71
2023/01/23 00:18:22;;;;;;;;;;;;;;;25.87;51.40;97568.94;619631;229;64719;-71
2023/01/23 00:20:50;;;;;;;;;;;;;;;25.87;50.99;97573.53;619615;229;63757;-71
2023/01/23 00:23:18;;;;;;;;;;;;;;;25.87;51.23;97578.91;619693;229;67260;-71
2023/01/23 00:25:45;;;;;;;;;;;;;;;25.84;50.86;97564.14;619619;229;66841;-71
2023/01/23 00:28:13;;;;;;;;;;;;;;;25.84;50.85;97569.52;619617;229;62767;-74
2023/01/23 00:30:40;;;;;;;;;;;;;;;25.84;50.57;97571.42;619616;229;65064;-75
2023/01/23 00:33:08;;;;;;;;;;;;;;;25.83;51.11;97570.59;619662;229;64536;-75
2023/01/23 00:35:36;;;;;;;;;;;;;;;25.83;50.86;97567.08;619673;229;64823;-75
2023/01/23 00:38:03;;;;;;;;;;;;;;;25.83;52.20;97553.61;619616;229;67016;-75
2023/01/23 00:40:31;;;;;;;;;;;;;;;25.81;52.44;97547.71;618870;227;67178;-75
2023/01/23 00:42:59;;;;;;;;;;;;;;;25.80;51.87;97560.38;618780;229;65728;-75
2023/01/23 00:45:26;;;;;;;;;;;;;;;25.80;51.38;97573.05;618776;229;64884;-75
2023/01/23 00:47:54;;;;;;;;;;;;;;;25.80;51.77;97584.61;618847;229;66732;-75
2023/01/23 00:50:21;;;;;;;;;;;;;;;25.80;51.41;97586.50;618788;229;66547;-75
2023/01/23 00:52:49;;;;;;;;;;;;;;;25.79;52.88;97580.33;618789;229;67048;-75
2023/01/23 00:55:17;;;;;;;;;;;;;;;25.77;50.65;97579.80;618841;228;64838;-75
2023/01/23 00:57:44;;;;;;;;;;;;;;;25.77;50.37;97585.19;618836;229;62851;-76
2023/01/23 01:00:12;;;;;;;;;;;;;;;25.77;52.01;97587.88;618844;228;66722;-75
2023/01/23 01:02:39;;;;;;;;;;;;;;;25.76;51.25;97585.49;618787;229;66916;-71
2023/01/23 01:05:07;;;;;;;;;;;;;;;25.75;52.86;97590.05;618752;229;64911;-71
2023/01/23 01:07:34;;;;;;;;;;;;;;;25.74;51.10;97580.38;618791;229;65093;-71
2023/01/23 01:10:03;;;;;;;;;;;;;;;25.73;52.45;97589.56;618756;227;66417;-71
2023/01/23 01:12:30;;;;;;;;;;;;;;;25.72;51.28;97582.55;618829;229;63659;-71
2023/01/23 01:14:57;;;;;;;;;;;;;;;25.72;51.10;97587.94;618838;229;64870;-71
2023/01/23 01:17:25;;;;;;;;;;;;;;;25.72;50.34;97592.53;618763;229;64835;-71
2023/01/23 01:19:52;;;;;;;;;;;;;;;25.72;51.88;97582.55;618776;229;62742;-71
2023/01/23 01:22:20;;;;;;;;;;;;;;;25.71;51.71;97580.17;618771;229;64413;-71
2023/01/23 01:24:48;;;;;;;;;;;;;;;25.69;51.10;97592.01;618809;229;65699;-71
2023/01/23 01:27:15;;;;;;;;;;;;;;;25.69;51.65;97593.91;618840;229;63691;-71
2023/01/23 01:29:43;;;;;;;;;;;;;;;25.69;52.38;97605.47;618809;229;65780;-71
2023/01/23 01:32:10;;;;;;;;;;;;;;;25.69;51.78;97605.47;618801;229;64847;-71
2023/01/23 01:34:38;;;;;;;;;;;;;;;25.67;52.07;97602.28;618803;229;62803;-71
2023/01/23 01:37:05;;;;;;;;;;;;;;;25.66;50.90;97600.66;618799;229;67151;-71
2023/01/23 01:39:33;;;;;;;;;;;;;;;25.65;51.04;97603.66;619201;229;64720;-71
2023/01/23 01:42:00;;;;;;;;;;;;;;;25.66;51.25;97605.25;619669;229;62954;-71
2023/01/23 01:44:28;;;;;;;;;;;;;;;25.65;52.62;97607.14;619656;229;65844;-71
2023/01/23 01:46:55;;;;;;;;;;;;;;;25.64;53.37;97608.22;619691;229;66501;-71
2023/01/23 01:49:29;;;;;;;;;;;;;;;25.64;51.63;97607.41;616178;229;64721;-71
2023/01/23 01:52:01;;;;;;;;;;;;;;;25.64;52.56;97602.03;619705;229;67012;-70
2023/01/23 01:54:33;;;;;;;;;;;;;;;25.62;51.24;97605.03;619655;229;65147;-70
2023/01/23 01:57:02;;;;;;;;;;;;;;;25.63;52.39;97605.83;619657;229;62794;-70
2023/01/23 01:59:31;;;;;;;;;;;;;;;25.63;53.12;97616.59;619603;227;73251;-70
2023/01/23 02:02:03;;;;;;;;;;;;;;;25.60;51.88;97628.73;619639;229;66879;-70
2023/01/23 02:04:31;;;;;;;;;;;;;;;25.60;53.48;97625.24;619576;227;64891;-71
2023/01/23 02:07:01;;;;;;;;;;;;;;;25.58;51.08;97622.83;619688;229;64889;-71
2023/01/23 02:09:32;;;;;;;;;;;;;;;25.58;51.17;97627.41;619679;229;66895;-71
2023/01/23 02:11:59;;;;;;;;;;;;;;;25.57;52.46;97629.31;619638;228;62566;-71
2023/01/23 02:14:27;;;;;;;;;;;;;;;25.57;51.43;97628.51;619608;229;66728;-71
2023/01/23 02:16:59;;;;;;;;;;;;;;;25.56;50.46;97637.66;619659;229;67778;-71
2023/01/23 02:19:34;;;;;;;;;;;;;;;25.56;51.85;97634.96;619577;227;64861;-71
2023/01/23 02:22:06;;;;;;;;;;;;;;;25.57;52.29;97633.89;619623;229;65154;-70
2023/01/23 02:24:36;;;;;;;;;;;;;;;25.55;51.37;97638.75;619317;228;64809;-70
2023/01/23 02:27:04;;;;;;;;;;;;;;;25.54;52.04;97637.16;619424;228;64895;-70
2023/01/23 02:29:42;;;;;;;;;;;;;;;25.53;51.99;97632.84;619665;229;64346;-70
2023/01/23 02:32:10;;;;;;;;;;;;;;;25.52;51.26;97636.63;619652;229;65125;-71
2023/01/23 02:34:37;;;;;;;;;;;;;;;25.51;52.16;97633.14;619675;229;65650;-71
2023/01/23 02:37:06;;;;;;;;;;;;;;;25.51;52.19;97635.84;619650;229;64884;-71
2023/01/23 02:39:34;;;;;;;;;;;;;;;25.50;50.65;97628.03;619231;229;66923;-71
2023/01/23 02:42:03;;;;;;;;;;;;;;;25.49;50.86;97629.94;618801;229;64831;-71
2023/01/23 02:44:35;;;;;;;;;;;;;;;25.49;51.95;97631.83;618576;228;44358;-71
2023/01/23 02:47:06;;;;;;;;;;;;;;;25.48;52.19;97636.38;618850;229;64371;-71
2023/01/23 02:49:34;;;;;;;;;;;;;;;25.47;52.54;97646.34;618852;229;62949;-71
2023/01/23 02:52:04;;;;;;;;;;;;;;;25.46;52.30;97650.14;618860;227;46846;-71
2023/01/23 02:54:32;;;;;;;;;;;;;;;25.47;53.56;97645.55;618818;229;66716;-71
2023/01/23 02:57:01;;;;;;;;;;;;;;;25.45;51.13;97642.34;618795;229;65651;-75
2023/01/23 03:02:16;;;;;;;;;;;;;;;25.44;51.27;97643.44;618839;228;66798;-75
2023/01/23 03:04:43;;;;;;;;;;;;;;;25.43;53.34;97649.91;618785;229;62804;-75
2023/01/23 03:07:11;;;;;;;;;;;;;;;25.42;52.23;97649.09;618813;229;64892;-75
2023/01/23 03:09:38;;;;;;;;;;;;;;;25.41;52.73;97634.04;618768;228;65104;-75
2023/01/23 03:12:08;;;;;;;;;;;;;;;25.40;52.85;97640.52;618782;229;65742;-75
2023/01/23 03:14:35;;;;;;;;;;;;;;;25.40;52.18;97645.08;618794;229;67120;-75
2023/01/23 03:17:03;;;;;;;;;;;;;;;25.39;51.58;97649.66;618795;229;64646;-75
2023/01/23 03:19:32;;;;;;;;;;;;;;;25.39;53.11;97641.59;618823;228;42574;-75
2023/01/23 03:22:00;;;;;;;;;;;;;;;25.38;52.55;97631.13;618788;229;67283;-75
2023/01/23 03:24:28;;;;;;;;;;;;;;;25.37;53.37;97630.33;618774;229;66867;-75
2023/01/23 03:26:56;;;;;;;;;;;;;;;25.36;52.08;97628.70;618842;229;63750;-75
2023/01/23 03:32:12;;;;;;;;;;;;;;;25.35;52.09;97642.46;618862;229;64411;-75
2023/01/23 03:34:40;;;;;;;;;;;;;;;25.35;52.18;97642.46;618789;229;64836;-76
2023/01/23 03:37:08;;;;;;;;;;;;;;;25.34;52.50;97640.84;618767;228;65075;-76
2023/01/23 03:42:21;;;;;;;;;;;;;;;25.34;52.41;97630.08;618849;229;65060;-76
2023/01/23 03:44:51;;;;;;;;;;;;;;;25.32;52.63;97630.37;618924;229;67484;-77
2023/01/23 03:47:21;;;;;;;;;;;;;;;25.32;53.37;97626.86;618805;229;67103;-74
2023/01/23 03:49:48;;;;;;;;;;;;;;;25.31;52.53;97636.03;618812;229;64840;-74
2023/01/23 03:52:16;;;;;;;;;;;;;;;25.31;51.96;97636.83;618812;229;67383;-74
2023/01/23 03:54:43;;;;;;;;;;;;;;;25.30;53.51;97631.75;618831;228;64500;-74
2023/01/23 03:57:11;;;;;;;;;;;;;;;25.28;52.40;97628.53;618813;229;62792;-74
2023/01/23 03:59:49;;;;;;;;;;;;;;;25.27;53.84;97625.05;618492;228;48635;-74
2023/01/23 04:02:18;;;;;;;;;;;;;;;25.26;52.21;97628.80;618866;228;44698;-74
2023/01/23 04:04:46;;;;;;;;;;;;;;;25.25;53.72;97632.59;618792;229;62787;-74
2023/01/23 04:07:13;;;;;;;;;;;;;;;25.24;53.69;97637.17;618815;229;67527;-74
2023/01/23 04:09:41;;;;;;;;;;;;;;;25.24;52.41;97636.38;618818;229;63790;-74
2023/01/23 04:12:09;;;;;;;;;;;;;;;25.23;52.81;97640.93;618848;229;65531;-74
2023/01/23 04:14:38;;;;;;;;;;;;;;;25.22;52.49;97639.34;618774;228;45115;-74
2023/01/23 04:17:06;;;;;;;;;;;;;;;25.23;53.58;97645.52;618571;229;64226;-74
2023/01/23 04:19:34;;;;;;;;;;;;;;;25.22;52.68;97649.30;617806;228;65075;-74
2023/01/23 04:22:02;;;;;;;;;;;;;;;25.21;52.88;97642.33;618849;229;67004;-69
2023/01/23 04:24:31;;;;;;;;;;;;;;;25.21;52.80;97647.70;617890;227;44449;-69
2023/01/23 04:26:59;;;;;;;;;;;;;;;25.22;53.90;97649.30;619348;226;62224;-69
2023/01/23 04:29:27;;;;;;;;;;;;;;;25.19;54.39;97649.87;625567;227;67248;-69
2023/01/23 04:31:54;;;;;;;;;;;;;;;25.19;53.65;97656.05;625574;227;66919;-70
2023/01/23 04:34:22;;;;;;;;;;;;;;;25.19;52.95;97657.94;625579;227;62767;-69
2023/01/23 04:36:50;;;;;;;;;;;;;;;25.18;53.85;97654.45;625588;227;67542;-69
2023/01/23 04:39:18;;;;;;;;;;;;;;;25.17;54.24;97662.79;625503;226;67055;-69
2023/01/23 04:41:47;;;;;;;;;;;;;;;25.16;52.50;97669.27;625567;227;65613;-69
2023/01/23 04:44:19;;;;;;;;;;;;;;;25.15;53.00;97649.61;619431;226;43792;-69
2023/01/23 04:46:49;;;;;;;;;;;;;;;25.14;53.08;97649.88;618266;229;43374;-74
2023/01/23 04:49:18;;;;;;;;;;;;;;;25.14;53.63;97666.81;618448;229;42816;-74
2023/01/23 04:51:47;;;;;;;;;;;;;;;25.13;51.75;97670.59;618276;227;67318;-74
2023/01/23 04:54:16;;;;;;;;;;;;;;;25.13;53.38;97670.59;618779;229;64360;-70
2023/01/23 04:56:44;;;;;;;;;;;;;;;25.12;53.71;97665.48;618784;229;62774;-69
2023/01/23 04:59:12;;;;;;;;;;;;;;;25.11;53.71;97672.76;618790;229;67311;-69
2023/01/23 05:01:41;;;;;;;;;;;;;;;25.11;54.06;97671.96;618792;229;63961;-69
2023/01/23 05:04:09;;;;;;;;;;;;;;;25.09;52.70;97680.30;618817;229;65585;-69
2023/01/23 05:06:37;;;;;;;;;;;;;;;25.10;54.77;97691.85;618828;229;67561;-74
2023/01/23 05:09:05;;;;;;;;;;;;;;;25.09;53.29;97677.61;618870;229;64506;-74
2023/01/23 05:11:38;;;;;;;;;;;;;;;25.08;52.17;97677.91;618482;229;44376;-75
2023/01/23 05:14:05;;;;;;;;;;;;;;;25.08;52.61;97692.16;618789;229;67582;-74
2023/01/23 05:16:33;;;;;;;;;;;;;;;25.08;55.04;97700.22;618835;229;64762;-74
2023/01/23 05:19:02;;;;;;;;;;;;;;;25.07;54.10;97692.42;618089;229;47377;-74
2023/01/23 05:21:30;;;;;;;;;;;;;;;25.07;52.26;97697.80;618810;229;67550;-75
2023/01/23 05:23:58;;;;;;;;;;;;;;;25.06;54.63;97709.65;618810;227;65180;-75
2023/01/23 05:26:26;;;;;;;;;;;;;;;25.05;54.14;97708.05;618851;229;62661;-75
2023/01/23 05:28:54;;;;;;;;;;;;;;;25.05;53.14;97718.81;618804;229;67304;-74
2023/01/23 05:31:21;;;;;;;;;;;;;;;25.03;53.06;97722.56;618859;229;66676;-75
2023/01/23 05:33:51;;;;;;;;;;;;;;;25.05;54.25;97729.57;617825;229;42322;-75
2023/01/23 05:36:20;;;;;;;;;;;;;;;25.02;52.87;97720.17;618789;229;67100;-75
2023/01/23 05:38:47;;;;;;;;;;;;;;;25.01;52.47;97724.72;618724;229;67215;-74
2023/01/23 05:41:15;;;;;;;;;;;;;;;25.01;52.79;97723.92;618816;229;62730;-75
2023/01/23 05:44:00;;;;;;;;;;;;;;;25.01;53.79;97732.79;618919;229;37667;-74
2023/01/23 05:46:30;;;;;;;;;;;;;;;25.01;54.62;97722.03;618711;227;45663;-75
2023/01/23 05:48:57;;;;;;;;;;;;;;;25.00;53.89;97725.82;618794;229;64904;-75
2023/01/23 05:51:31;;;;;;;;;;;;;;;25.00;52.63;97728.51;618809;229;67592;-74
2023/01/23 05:53:54;;;;;;;;;;;;;;;24.99;53.84;97734.98;618660;229;64817;-75
2023/01/23 05:56:22;;;;;;;;;;;;;;;25.00;53.20;97725.82;618830;229;64925;-75
2023/01/23 05:58:51;;;;;;;;;;;;;;;25.00;52.84;97733.09;617780;229;43454;-75
2023/01/23 06:01:21;;;;;;;;;;;;;;;25.00;53.20;97736.58;618576;229;46114;-70
2023/01/23 06:03:59;;;;;;;;;;;;;;;25.00;53.52;97738.47;618852;229;45085;-69
2023/01/23 06:06:35;;;;;;;;;;;;;;;25.01;54.02;97746.23;618778;229;49985;-69
2023/01/23 06:09:02;;;;;;;;;;;;;;;25.00;51.79;97752.71;618803;229;66529;-70
2023/01/23 06:11:30;;;;;;;;;;;;;;;25.00;52.96;97750.02;618861;229;62831;-70
2023/01/23 06:13:57;;;;;;;;;;;;;;;25.01;53.25;97754.30;618812;227;67213;-69
2023/01/23 06:16:27;;;;;;;;;;;;;;;25.01;52.43;97756.99;618846;229;64898;-69
2023/01/23 06:18:54;;;;;;;;;;;;;;;25.02;53.96;97747.06;618847;229;62866;-70
2023/01/23 06:21:23;;;;;;;;;;;;;;;25.03;53.19;97765.59;618856;229;67509;-69
2023/01/23 06:23:51;;;;;;;;;;;;;;;25.03;52.83;97776.34;618843;229;66860;-69
2023/01/23 06:26:18;;;;;;;;;;;;;;;25.03;52.19;97768.28;618835;229;62794;-69
2023/01/23 06:28:46;;;;;;;;;;;;;;;25.04;53.79;97766.39;618842;229;64940;-69
2023/01/23 06:31:13;;;;;;;;;;;;;;;25.03;53.24;97760.22;618848;229;66860;-69
2023/01/23 06:33:47;;;;;;;;;;;;;;;25.05;52.77;97768.02;618593;229;46417;-69
2023/01/23 06:36:15;;;;;;;;;;;;;;;25.06;53.71;97772.30;618857;229;67044;-70
2023/01/23 06:38:43;;;;;;;;;;;;;;;25.07;53.21;97776.59;618587;227;66833;-70
2023/01/23 06:41:11;;;;;;;;;;;;;;;25.08;53.07;97782.80;615449;230;65558;-70
2023/01/23 06:43:41;;;;;;;;;;;;;;;25.10;52.15;97785.98;615339;230;45570;-69
2023/01/23 06:46:11;;;;;;;;;;;;;;;25.11;52.73;97782.23;615363;228;44157;-72
2023/01/23 06:48:38;;;;;;;;;;;;;;;25.12;52.68;97789.20;615464;228;64901;-70
2023/01/23 06:51:06;;;;;;;;;;;;;;;25.13;53.16;97796.21;615465;230;67512;-68
2023/01/23 06:53:34;;;;;;;;;;;;;;;25.15;53.85;97794.05;615402;228;66118;-68
2023/01/23 06:56:02;;;;;;;;;;;;;;;25.15;52.29;97791.36;614834;230;62804;-71
2023/01/23 06:58:30;;;;;;;;;;;;;;;25.17;52.83;97791.89;615459;230;65026;-72
2023/01/23 07:00:58;;;;;;;;;;;;;;;25.18;53.73;97796.18;615441;228;66898;-70
2023/01/23 07:03:37;;;;;;;;;;;;;;;25.18;53.00;97798.87;614463;228;45007;-70
2023/01/23 07:06:05;;;;;;;;;;;;;;;25.22;53.01;97802.62;615568;230;64788;-71
2023/01/23 07:08:34;;;;;;;;;;;;;;;25.22;53.75;97794.55;615691;230;64932;-71
2023/01/23 07:11:02;;;;;;;;;;;;;;;25.23;51.88;97796.16;615778;230;66127;-72
2023/01/23 07:13:30;;;;;;;;;;;;;;;25.25;53.68;97802.86;615749;230;66782;-69
2023/01/23 07:15:58;;;;;;;;;;;;;;;25.27;52.44;97793.72;615746;230;64821;-70
2023/01/23 07:18:27;;;;;;;;;;;;;;;25.29;51.37;97800.44;615707;230;64887;-69
2023/01/23 07:20:55;;;;;;;;;;;;;;;25.31;52.43;97805.52;615786;230;67265;-68
2023/01/23 07:23:22;;;;;;;;;;;;;;;25.33;54.25;97804.16;615754;230;67057;-68
2023/01/23 07:25:50;;;;;;;;;;;;;;;25.34;52.59;97813.83;615774;230;64848;-71
2023/01/23 07:28:17;;;;;;;;;;;;;;;25.36;53.22;97806.28;615791;230;67006;-70
2023/01/23 07:30:46;;;;;;;;;;;;;;;25.39;53.81;97808.41;615687;230;67724;-68
2023/01/23 07:33:13;;;;;;;;;;;;;;;25.40;52.94;97810.03;615680;230;62907;-70
2023/01/23 07:35:41;;;;;;;;;;;;;;;25.43;54.17;97812.16;615722;230;64831;-69
2023/01/23 07:38:08;;;;;;;;;;;;;;;25.45;52.01;97820.77;615717;230;66699;-71
2023/01/23 07:40:37;;;;;;;;;;;;;;;25.48;53.57;97813.99;619027;229;64864;-71
2023/01/23 07:43:05;;;;;;;;;;;;;;;25.51;52.83;97823.39;619638;229;67074;-71
2023/01/23 07:45:37;;;;;;;;;;;;;;;25.52;51.81;97819.64;619518;229;66872;-70
2023/01/23 07:48:02;;;;;;;;;;;;;;;25.56;51.10;97817.98;619391;227;64811;-70
2023/01/23 07:50:29;;;;;;;;;;;;;;;25.58;51.35;97813.13;619627;229;67049;-69
2023/01/23 07:52:57;;;;;;;;;;;;;;;25.59;50.71;97823.62;619591;229;66884;-70
2023/01/23 07:55:24;;;;;;;;;;;;;;;25.61;51.92;97828.70;619587;229;64837;-68
2023/01/23 07:57:52;;;;;;;;;;;;;;;25.63;51.52;97821.16;619660;229;67069;-70
2023/01/23 08:00:19;;;;;;;;;;;;;;;25.64;51.92;97811.98;619583;229;66392;-67
2023/01/23 08:02:47;;;;;;;;;;;;;;;25.65;52.10;97819.80;619624;229;62890;-70
2023/01/23 08:05:15;;;;;;;;;;;;;;;25.66;51.59;97821.39;619599;229;64690;-68
2023/01/23 08:07:42;;;;;;;;;;;;;;;25.68;50.50;97813.05;619565;229;64848;-68
2023/01/23 08:10:10;;;;;;;;;;;;;;;25.69;51.92;97825.41;619672;229;63897;-68
2023/01/23 08:12:38;;;;;;;;;;;;;;;25.69;51.10;97828.09;619533;229;66923;-67
2023/01/23 08:15:06;;;;;;;;;;;;;;;25.71;52.69;97819.75;619600;229;66693;-67
2023/01/23 08:17:33;;;;;;;;;;;;;;;25.72;52.29;97821.34;619607;229;65110;-67
2023/01/23 08:20:01;;;;;;;;;;;;;;;25.73;51.95;97822.95;619576;229;66918;-67
2023/01/23 08:22:28;;;;;;;;;;;;;;;25.73;52.07;97826.47;619581;229;66827;-68
2023/01/23 08:24:56;;;;;;;;;;;;;;;25.74;51.82;97822.67;619653;229;63066;-67
2023/01/23 08:27:23;;;;;;;;;;;;;;;25.75;51.81;97835.04;619520;229;64572;-68
2023/01/23 08:29:51;;;;;;;;;;;;;;;25.76;51.32;97823.20;619555;229;67064;-68
2023/01/23 08:32:18;;;;;;;;;;;;;;;25.77;51.41;97827.48;619577;229;65120;-68
2023/01/23 08:34:47;;;;;;;;;;;;;;;25.79;51.57;97840.69;619512;229;67487;-68
2023/01/23 08:37:15;;;;;;;;;;;;;;;25.79;52.17;97849.56;619640;229;65028;-66
2023/01/23 08:39:42;;;;;;;;;;;;;;;25.80;52.12;97848.46;619496;229;64898;-68
2023/01/23 08:42:10;;;;;;;;;;;;;;;25.81;51.73;97847.39;619518;229;65051;-67
2023/01/23 08:44:38;;;;;;;;;;;;;;;25.83;50.01;97853.31;619535;229;67230;-67
2023/01/23 08:47:05;;;;;;;;;;;;;;;25.85;47.54;97853.84;619595;229;62891;-67
2023/01/23 08:49:33;;;;;;;;;;;;;;;25.89;50.33;97846.81;619557;229;65679;-69
2023/01/23 08:52:00;;;;;;;;;;;;;;;25.89;52.05;97846.81;619579;229;66903;-70
2023/01/23 08:54:28;;;;;;;;;;;;;;;25.92;51.37;97834.68;619463;229;64861;-67
2023/01/23 08:56:55;;;;;;;;;;;;;;;25.91;45.96;97833.85;619502;229;66053;-68
2023/01/23 08:59:23;;;;;;;;;;;;;;;25.96;49.12;97832.21;619593;229;66895;-68
2023/01/23 09:01:50;;;;;;;;;;;;;;;25.98;50.93;97849.70;619623;229;65194;-68
2023/01/23 09:04:18;;;;;;;;;;;;;;;25.98;49.86;97841.62;619535;229;67206;-67
2023/01/23 09:06:45;;;;;;;;;;;;;;;25.98;50.96;97844.31;619525;229;64971;-67
2023/01/23 09:09:13;;;;;;;;;;;;;;;25.97;51.01;97844.58;619581;229;62725;-68
2023/01/23 09:11:40;;;;;;;;;;;;;;;25.97;50.38;97847.27;619509;229;64711;-69
2023/01/23 09:14:08;;;;;;;;;;;;;;;25.96;50.74;97840.29;619685;229;64730;-67
2023/01/23 09:16:35;;;;;;;;;;;;;;;25.97;49.76;97831.11;619505;229;63825;-68
2023/01/23 09:19:02;;;;;;;;;;;;;;;25.98;51.23;97838.92;619549;229;67230;-71
2023/01/23 09:21:30;;;;;;;;;;;;;;;25.99;50.61;97845.11;619528;229;67293;-70
2023/01/23 09:23:57;;;;;;;;;;;;;;;25.99;50.54;97835.13;619537;229;64769;-71
2023/01/23 09:26:25;;;;;;;;;;;;;;;26.02;44.37;97839.15;619553;229;67049;-70
2023/01/23 09:28:54;;;;;;;;;;;;;;;26.05;50.44;97843.97;619560;229;65630;-67
2023/01/23 09:31:23;;;;;;;;;;;;;;;26.06;51.36;97834.81;619505;229;63261;-69
2023/01/23 09:33:51;;;;;;;;;;;;;;;26.03;45.48;97830.00;619514;229;67236;-70
2023/01/23 09:36:18;;;;;;;;;;;;;;;26.10;49.32;97830.45;619576;229;66884;-68
2023/01/23 09:38:48;;;;;;;;;;;;;;;26.14;50.61;97834.20;619453;229;64872;-68
2023/01/23 09:41:17;;;;;;;;;;;;;;;26.16;50.87;97833.89;619647;229;64578;-67
2023/01/23 09:44:06;;;;;;;;;;;;;;;26.20;49.81;97834.95;619555;229;64830;-69
2023/01/23 09:46:40;;;;;;;;;;;;;;;26.20;51.15;97829.56;619459;229;65174;-68
2023/01/23 09:49:12;;;;;;;;;;;;;;;26.21;50.88;97825.77;619583;227;67279;-68
2023/01/23 09:51:47;;;;;;;;;;;;;;;26.21;49.69;97823.87;619585;229;66977;-71
2023/01/23 09:54:28;;;;;;;;;;;;;;;26.22;49.06;97822.80;619517;229;63017;-70
2023/01/23 09:56:59;;;;;;;;;;;;;;;26.23;49.73;97813.62;619528;228;44799;-70
2023/01/23 09:59:34;;;;;;;;;;;;;;;26.23;49.07;97805.53;619552;229;64913;-67
2023/01/23 10:02:02;;;;;;;;;;;;;;;26.25;48.81;97806.06;619555;229;62703;-71
2023/01/23 10:04:31;;;;;;;;;;;;;;;26.26;49.04;97806.86;619576;229;65019;-73
2023/01/23 10:07:08;;;;;;;;;;;;;;;26.28;47.25;97800.09;619566;229;66917;-69
2023/01/23 10:09:44;;;;;;;;;;;;;;;26.30;47.42;97797.09;619624;227;64869;-70
2023/01/23 10:12:22;;;;;;;;;;;;;;;26.31;47.89;97791.43;619592;229;64899;-69
2023/01/23 10:15:07;;;;;;;;;;;;;;;26.33;47.98;97797.34;619419;229;66884;-69
2023/01/23 10:17:50;;;;;;;;;;;;;;;26.34;48.05;97798.94;619458;229;63664;-68
2023/01/23 10:20:24;;;;;;;;;;;;;;;26.38;48.61;97787.58;603867;229;49242;-72
2023/01/23 10:22:54;;;;;;;;;;;;;;;26.40;47.86;97790.80;617715;228;67037;-72
2023/01/23 10:25:22;;;;;;;;;;;;;;;26.41;47.66;97789.70;619901;227;65278;-71
2023/01/23 10:27:51;;;;;;;;;;;;;;;26.41;47.74;97800.48;619517;229;65196;-71
2023/01/23 10:30:23;;;;;;;;;;;;;;;26.41;47.54;97798.61;619636;229;64778;-71
2023/01/23 10:33:01;;;;;;;;;;;;;;;26.43;48.19;97792.91;619390;228;65041;-70
2023/01/23 10:35:49;;;;;;;;;;;;;;;26.42;48.49;97784.03;619556;229;67357;-71
2023/01/23 10:38:24;;;;;;;;;;;;;;;26.44;48.17;97786.45;619545;229;69500;-71
2023/01/23 10:43:37;;;;;;;;;;;;;;;26.47;48.67;97785.88;619526;229;65168;-70
2023/01/23 10:46:06;;;;;;;;;;;;;;;26.48;48.05;97777.48;619586;229;67182;-70
2023/01/23 10:48:35;;;;;;;;;;;;;;;26.48;49.01;97776.69;619592;227;65034;-71
2023/01/23 10:51:03;;;;;;;;;;;;;;;26.47;48.22;97775.89;619539;229;67341;-68
2023/01/23 10:53:30;;;;;;;;;;;;;;;26.48;48.41;97779.38;619509;229;66887;-69
2023/01/23 10:55:59;;;;;;;;;;;;;;;26.49;49.06;97778.28;619560;229;64928;-70
2023/01/23 10:58:40;;;;;;;;;;;;;;;26.50;48.18;97767.22;619555;229;64580;-70
2023/01/23 11:01:21;;;;;;;;;;;;;;;26.52;48.36;97764.28;619393;228;66831;-71
2023/01/23 11:03:49;;;;;;;;;;;;;;;26.50;48.82;97761.03;619561;227;64873;-71
2023/01/23 11:06:18;;;;;;;;;;;;;;;26.53;48.07;97773.96;619576;229;67732;-71
2023/01/23 11:08:53;;;;;;;;;;;;;;;26.51;49.51;97766.15;619549;229;67153;-72
2023/01/23 11:11:27;;;;;;;;;;;;;;;26.53;48.72;97772.06;619507;227;64915;-75
2023/01/23 11:14:05;;;;;;;;;;;;;;;26.55;48.66;97771.78;619554;229;67218;-69
2023/01/23 11:16:33;;;;;;;;;;;;;;;26.56;48.08;97773.38;619557;229;65864;-68
2023/01/23 11:19:11;;;;;;;;;;;;;;;26.56;47.25;97770.69;619575;229;62733;-69
2023/01/23 11:21:40;;;;;;;;;;;;;;;26.58;48.17;97765.02;619676;229;67243;-72
2023/01/23 11:24:09;;;;;;;;;;;;;;;26.56;48.61;97774.17;619724;227;64642;-69
2023/01/23 11:26:38;;;;;;;;;;;;;;;26.58;47.58;97771.20;618876;228;62776;-74
2023/01/23 11:29:23;;;;;;;;;;;;;;;26.56;47.64;97757.20;619557;229;67251;-70
2023/01/23 11:31:55;;;;;;;;;;;;;;;26.58;46.10;97757.73;619481;229;66959;-77
2023/01/23 11:34:23;;;;;;;;;;;;;;;26.58;47.62;97763.12;619458;227;62745;-71
2023/01/23 11:37:01;;;;;;;;;;;;;;;26.60;47.23;97770.90;619463;229;64922;-70
2023/01/23 11:39:47;;;;;;;;;;;;;;;26.60;47.91;97766.33;619144;229;67016;-70
2023/01/23 11:42:16;;;;;;;;;;;;;;;26.61;47.65;97765.23;618690;229;65280;-75
2023/01/23 11:44:45;;;;;;;;;;;;;;;26.60;47.49;97768.20;618547;229;67330;-74
2023/01/23 11:47:31;;;;;;;;;;;;;;;26.59;47.38;97770.10;618618;229;66887;-75
2023/01/23 11:50:06;;;;;;;;;;;;;;;26.60;47.38;97774.42;618720;229;65171;-69
2023/01/23 11:52:35;;;;;;;;;;;;;;;26.59;48.40;97770.10;618738;229;67416;-75
2023/01/23 11:55:14;;;;;;;;;;;;;;;26.58;48.00;97771.20;618530;229;65100;-72
2023/01/23 11:57:58;;;;;;;;;;;;;;;26.61;47.89;97769.83;613025;228;65158;-68
2023/01/23 12:00:27;;;;;;;;;;;;;;;26.59;47.58;97767.41;618675;228;67258;-68
2023/01/23 12:03:05;;;;;;;;;;;;;;;26.60;47.71;97769.03;618612;229;67071;-68
2023/01/23 12:05:40;;;;;;;;;;;;;;;26.61;47.86;97765.23;621471;226;65204;-67
2023/01/23 12:08:15;;;;;;;;;;;;;;;26.61;47.55;97764.44;619752;226;64842;-69
2023/01/23 12:10:44;;;;;;;;;;;;;;;26.61;47.02;97759.84;618734;229;66764;-67
2023/01/23 12:13:12;;;;;;;;;;;;;;;26.61;48.25;97754.45;618500;229;63030;-67
2023/01/23 12:15:42;;;;;;;;;;;;;;;26.61;47.86;97764.44;618331;229;64469;-67
2023/01/23 12:18:23;;;;;;;;;;;;;;;26.61;46.92;97769.83;618727;229;64562;-68
2023/01/23 12:21:10;;;;;;;;;;;;;;;26.62;47.81;97771.42;618351;229;62886;-70
2023/01/23 12:23:48;;;;;;;;;;;;;;;26.63;47.92;97775.70;609873;232;64963;-65
2023/01/23 12:26:21;;;;;;;;;;;;;;;26.64;47.98;97770.04;610028;232;64699;-66
2023/01/23 12:29:06;;;;;;;;;;;;;;;26.63;47.96;97767.63;613901;229;63389;-70
2023/01/23 12:31:41;;;;;;;;;;;;;;;26.64;46.08;97769.25;618700;229;66903;-67
2023/01/23 12:34:11;;;;;;;;;;;;;;;26.65;48.22;97770.84;617644;229;64855;-66
2023/01/23 12:36:43;;;;;;;;;;;;;;;26.66;46.77;97773.26;618591;229;63855;-66
2023/01/23 12:39:15;;;;;;;;;;;;;;;26.68;46.84;97772.95;618678;229;67079;-67
2023/01/23 12:41:44;;;;;;;;;;;;;;;26.64;47.06;97772.73;618743;229;68191;-68
2023/01/23 12:44:13;;;;;;;;;;;;;;;26.64;47.76;97766.55;618665;229;67870;-68
2023/01/23 12:46:44;;;;;;;;;;;;;;;26.64;48.58;97764.65;618654;229;65007;-67
2023/01/23 12:49:20;;;;;;;;;;;;;;;26.64;48.61;97763.85;618663;229;64845;-67
2023/01/23 12:51:49;;;;;;;;;;;;;;;26.65;48.24;97774.33;618608;229;65069;-66
2023/01/23 12:54:18;;;;;;;;;;;;;;;26.65;48.16;97779.72;618535;229;64773;-67
2023/01/23 12:56:47;;;;;;;;;;;;;;;26.62;48.33;97772.22;618640;229;64666;-67
2023/01/23 12:59:16;;;;;;;;;;;;;;;26.63;48.65;97787.31;618675;229;65061;-69
2023/01/23 13:01:48;;;;;;;;;;;;;;;26.64;48.50;97780.83;618426;229;67431;-68
2023/01/23 13:04:36;;;;;;;;;;;;;;;26.65;48.13;97782.41;617601;229;64643;-68
2023/01/23 13:07:05;;;;;;;;;;;;;;;26.64;48.87;97772.73;618662;229;65076;-68
2023/01/23 13:09:34;;;;;;;;;;;;;;;26.64;47.99;97775.44;618710;229;67334;-67
2023/01/23 13:12:11;;;;;;;;;;;;;;;26.64;48.37;97780.03;618342;229;67411;-68